• Join FlightAware (Why Join?)
  • Login
  • US Flag 
11:41AM EDT


 

Airport Tracker/Info


-or-


 

Live Flight TrackerFlight Track Log ✈ N7800 ✈ 29-Jul-2013 ✈ KYKN - KOSH

Flight Track Log - Related Links

Times and Time Zones

All times are in EDT time to prevent confusion due to time zone crossing. See the N7800 flight status page for this flight to view local times or setup timezone preferences in your user account.

Time Position Orientation Groundspeed Altitude Reporting Facility
EDT Latitude Longitude Course Direction KTS MPH feet Rate Location/Type
11:10AM 42.9164 -97.2089 75° East 134 154 5,900  Level Minneapolis Center
11:11AM 42.9272 -97.1544 75° East 139 160 6,700 840 Climbing Minneapolis Center
11:12AM 42.9372 -97.0989 76° East 144 166 7,700 900 Climbing Minneapolis Center
11:13AM 42.9494 -97.0442 73° East 148 170 8,600 840 Climbing Minneapolis Center
11:14AM 42.9617 -96.9858 74° East 155 178 9,500 900 Climbing Minneapolis Center
11:15AM 42.9733 -96.9269 75° East 160 184 10,500 900 Climbing Minneapolis Center
11:16AM 42.9883 -96.8522 75° East 167 192 11,400 720 Climbing Minneapolis Center
11:17AM 43.0006 -96.7886 75° East 171 197 12,100 660 Climbing Minneapolis Center
11:18AM 43.0142 -96.7211 75° East 179 206 12,800 720 Climbing Minneapolis Center
11:19AM 43.0275 -96.6564 74° East 179 206 13,600 660 Climbing Minneapolis Center
11:20AM 43.0414 -96.5883 74° East 183 211 14,200 780 Climbing Minneapolis Center
11:21AM 43.0550 -96.5083 77° East 182 209 15,300 780 Climbing Minneapolis Center
11:22AM 43.0694 -96.4364 75° East 190 219 15,900 540 Climbing Minneapolis Center
11:24AM 43.1002 -96.3494 75° East  Level FlightAware Approximate
11:24AM 43.0953 -96.3022 75° East 202 232 17,000  Level Minneapolis Center
11:25AM 43.1136 -96.2092 75° East 209 241 17,000  Level Minneapolis Center
11:26AM 43.1294 -96.1242 76° East 220 253 17,000  Level Minneapolis Center
11:27AM 43.1494 -96.0192 75° East 235 270 17,000  Level Minneapolis Center
11:29AM 43.1644 -95.9411 75° East 220 253 17,000  Level Minneapolis Center
11:30AM 43.1814 -95.8467 76° East 217 250 17,000  Level Minneapolis Center
11:31AM 43.1964 -95.7692 75° East 214 246 17,000  Level Minneapolis Center
11:32AM 43.2111 -95.6919 75° East 209 241 17,000  Level Minneapolis Center
11:33AM 43.2289 -95.5994 75° East 210 242 17,000  Level Minneapolis Center
11:34AM 43.2431 -95.5203 76° East 213 245 17,000  Level Minneapolis Center
11:35AM 43.2600 -95.4261 76° East 213 245 17,000  Level Minneapolis Center
11:36AM 43.2750 -95.3492 75° East 212 244 17,000  Level Minneapolis Center
11:37AM 43.2889 -95.2717 76° East 210 242 17,000  Level Minneapolis Center
11:38AM 43.3064 -95.1775 76° East 213 245 17,000  Level Minneapolis Center
11:39AM 43.3197 -95.1006 77° East 211 243 17,000  Level Minneapolis Center
11:40AM 43.3336 -95.0228 76° East 211 243 17,000  Level Minneapolis Center
11:41AM 43.3508 -94.9308 76° East 209 241 17,000  Level Minneapolis Center
11:43AM 43.3636 -94.8533 77° East 210 242 17,000  Level Minneapolis Center
11:44AM 43.3753 -94.7911 76° East 210 242 17,000  Level Minneapolis Center
11:45AM 43.3947 -94.6819 76° East 210 242 17,000  Level Minneapolis Center
11:46AM 43.4083 -94.6036 77° East 211 243 17,000  Level Minneapolis Center
11:47AM 43.4225 -94.5267 76° East 209 241 17,000  Level Minneapolis Center
11:48AM 43.4358 -94.4469 77° East 213 245 17,000  Level Minneapolis Center
11:49AM 43.4494 -94.3692 76° East 212 244 17,000  Level Minneapolis Center
11:50AM 43.4661 -94.2742 76° East 213 245 17,000  Level Minneapolis Center
11:51AM 43.4758 -94.2078 79° East 212 244 17,000  Level Minneapolis Center
11:52AM 43.4900 -94.1283 76° East 213 245 17,000  Level Minneapolis Center
11:53AM 43.5042 -94.0353 78° East 211 243 17,000  Level Minneapolis Center
11:54AM 43.5181 -93.9564 76° East 211 243 17,000  Level Minneapolis Center
11:55AM 43.5328 -93.8786 75° East 211 243 17,000  Level Minneapolis Center
11:56AM 43.5447 -93.8142 76° East 213 245 17,000  Level Minneapolis Center
11:57AM 43.5622 -93.7028 78° East 214 246 17,000  Level Minneapolis Center
11:58AM 43.5758 -93.6231 77° East 214 246 17,000  Level Minneapolis Center
11:59AM 43.5889 -93.5461 77° East 208 239 17,000  Level Minneapolis Center
12:00PM 43.5969 -93.4517 83° East 208 239 17,000  Level Minneapolis Center
12:01PM 43.6036 -93.3886 82° East 208 239 17,000  Level Minneapolis Center
12:02PM 43.6111 -93.2953 84° East 206 237 17,000  Level Minneapolis Center
12:03PM 43.6208 -93.1989 82° East 211 243 17,000  Level Minneapolis Center
12:04PM 43.6272 -93.1261 83° East 205 236 17,000  Level Minneapolis Center
12:05PM 43.6339 -93.0475 83° East 206 237 17,000  Level Minneapolis Center
12:07PM 43.6414 -92.9694 82° East 207 238 17,000  Level Minneapolis Center
12:08PM 43.6503 -92.8747 83° East 208 239 17,000  Level Minneapolis Center
12:09PM 43.6561 -92.7969 84° East 207 238 17,000  Level Minneapolis Center
12:10PM 43.6639 -92.7175 82° East 208 239 17,000  Level Minneapolis Center
12:11PM 43.6711 -92.6394 83° East 208 239 17,000  Level Minneapolis Center
12:12PM 43.6778 -92.5583 83° East 212 244 17,000  Level Minneapolis Center
12:13PM 43.6853 -92.4636 84° East 209 241 17,000  Level Minneapolis Center
12:14PM 43.6931 -92.3811 83° East 217 250 17,000  Level Minneapolis Center
12:15PM 43.6994 -92.3033 83° East 206 237 17,000  Level Minneapolis Center
12:16PM 43.7067 -92.2231 83° East 211 243 17,000  Level Minneapolis Center
12:17PM 43.7128 -92.1436 84° East 209 241 17,000  Level Minneapolis Center
12:18PM 43.7208 -92.0478 83° East 210 242 17,000  Level Minneapolis Center
12:19PM 43.7278 -91.9672 83° East 213 245 17,000  Level Minneapolis Center
12:20PM 43.7344 -91.8875 83° East 210 242 17,000  Level Minneapolis Center
12:21PM 43.7353 -91.8072 89° East 210 242 17,000  Level Minneapolis Center
12:22PM 43.7350 -91.7275 90° East 209 241 17,000  Level Minneapolis Center
12:23PM 43.7356 -91.6331 90° East 207 238 17,000  Level Minneapolis Center
12:24PM 43.7439 -91.5553 82° East 205 236 17,000  Level Minneapolis Center
12:25PM 43.7528 -91.4758 81° East 208 239 17,000  Level Minneapolis Center
12:26PM 43.7611 -91.3972 82° East 208 239 17,000  Level Minneapolis Center
12:27PM 43.7700 -91.3069 82° East 210 242 17,000  Level Minneapolis Center
12:28PM 43.7778 -91.2208 83° East 213 245 17,000 -120 Level Minneapolis Center
12:29PM 43.7864 -91.1381 82° East 210 242 16,800 -360 Descending Minneapolis Center
12:31PM 43.7964 -91.0375 82° East 218 251 16,200 -540 Descending Minneapolis Center
12:32PM 43.8050 -90.9492 82° East 221 254 15,700 -480 Descending Minneapolis Center
12:33PM 43.8072 -90.8814 87° East 220 253 15,300 -540 Descending Minneapolis Center
12:34PM 43.8094 -90.7708 88° East 223 257 14,600 -600 Descending Minneapolis Center
12:35PM 43.8114 -90.6842 88° East 220 253 14,100 -540 Descending Minneapolis Center